Terminal Aerodrome Forecast
Issued by NWS

Current Version | Previous Version | Text Only | Print | Product List | Glossary Off
Versions: 1 2 3 4 5 6 7 8 9 10 11 12 13 14 15 16 17 18 19 20 21 22 23 24

000
FTUS41 KRLX 302330
TAFCKB
TAF
KCKB 302330Z 3100/3124 30006KT P6SM FEW050
     FM310700 00000KT 6SM BR SKC
     FM310800 00000KT 3SM BR SKC
     FM311300 VRB03KT P6SM SKC
     FM311500 26005KT P6SM FEW045=

USA.gov is the U.S. government's official web portal to all federal, state and local government web resources and services.